Time;durP1;ratioP1;P1;durP2;ratioP2;P2;SDS_P1;SDS_P2;PMS_P1;PMS_P2;Temp;Humidity;BMP_temperature;BMP_pressure;BME280_temperature;BME280_humidity;BME280_pressure;Samples;Min_cycle;Max_cycle;Signal;HPM_P1;HPM_P2
2023/06/22 00:01:05;;;;;;;45.78;30.20;;;;;;;;;;4995339;28;20041;-65
2023/06/22 00:03:31;;;;;;;52.38;31.63;;;;;;;;;;4996873;28;20038;-64
2023/06/22 00:05:56;;;;;;;46.97;29.33;;;;;;;;;;4994073;28;20084;-64
2023/06/22 00:08:22;;;;;;;54.58;32.45;;;;;;;;;;4980825;28;20037;-64
2023/06/22 00:10:47;;;;;;;49.15;31.10;;;;;;;;;;4996022;28;20033;-65
2023/06/22 00:13:13;;;;;;;66.72;38.40;;;;;;;;;;4992167;28;20026;-64
2023/06/22 00:15:40;;;;;;;74.85;40.50;;;;;;;;;;4993876;28;20068;-64
2023/06/22 00:18:09;;;;;;;64.13;36.85;;;;;;;;;;4979747;28;20033;-65
2023/06/22 00:20:36;;;;;;;61.25;37.05;;;;;;;;;;4982393;28;20033;-65
2023/06/22 00:23:06;;;;;;;64.82;39.00;;;;;;;;;;4997053;28;20057;-65
2023/06/22 00:25:31;;;;;;;64.00;37.63;;;;;;;;;;4980349;28;20038;-63
2023/06/22 00:27:56;;;;;;;68.65;39.42;;;;;;;;;;4995174;28;20089;-65
2023/06/22 00:30:22;;;;;;;66.28;38.58;;;;;;;;;;4977284;28;20026;-65
2023/06/22 00:32:47;;;;;;;61.85;37.88;;;;;;;;;;4995864;28;20128;-65
2023/06/22 00:35:12;;;;;;;62.72;37.78;;;;;;;;;;4982195;28;20033;-65
2023/06/22 00:37:42;;;;;;;62.92;36.90;;;;;;;;;;4995860;28;20665;-64
2023/06/22 00:40:10;;;;;;;62.40;36.50;;;;;;;;;;4973236;28;20056;-65
2023/06/22 00:42:36;;;;;;;63.75;37.47;;;;;;;;;;4977910;28;20045;-65
2023/06/22 00:45:01;;;;;;;69.25;39.67;;;;;;;;;;4996205;28;20667;-66
2023/06/22 00:47:27;;;;;;;71.32;39.53;;;;;;;;;;4994544;28;20158;-66
2023/06/22 00:49:52;;;;;;;69.70;36.70;;;;;;;;;;4995905;28;20769;-65
2023/06/22 00:52:21;;;;;;;65.53;37.65;;;;;;;;;;4994682;28;20241;-66
2023/06/22 00:54:51;;;;;;;58.97;34.33;;;;;;;;;;4961836;28;20030;-65
2023/06/22 00:57:20;;;;;;;62.88;35.92;;;;;;;;;;4992210;28;20040;-65
2023/06/22 00:59:45;;;;;;;67.03;38.08;;;;;;;;;;4981443;28;20728;-65
2023/06/22 01:02:11;;;;;;;70.53;39.22;;;;;;;;;;4981559;28;20037;-65
2023/06/22 01:04:36;;;;;;;75.20;39.03;;;;;;;;;;4994111;28;20044;-64
2023/06/22 01:07:12;;;;;;;73.43;39.30;;;;;;;;;;4978294;28;20167;-65
2023/06/22 01:09:49;;;;;;;92.05;45.95;;;;;;;;;;4994916;28;20058;-65
2023/06/22 01:12:15;;;;;;;102.25;47.53;;;;;;;;;;4993654;28;20049;-65
2023/06/22 01:14:58;;;;;;;112.43;51.83;;;;;;;;;;4993315;28;20038;-65
2023/06/22 01:17:24;;;;;;;110.20;52.60;;;;;;;;;;4988179;28;20042;-65
2023/06/22 01:19:55;;;;;;;114.93;52.78;;;;;;;;;;4990600;28;20042;-64
2023/06/22 01:22:23;;;;;;;105.20;50.00;;;;;;;;;;4994687;28;20104;-65
2023/06/22 01:24:57;;;;;;;103.13;49.13;;;;;;;;;;4994007;28;20037;-66
2023/06/22 01:27:41;;;;;;;93.15;45.97;;;;;;;;;;4992427;28;20037;-66
2023/06/22 01:30:08;;;;;;;99.05;46.05;;;;;;;;;;4993923;28;20773;-64
2023/06/22 01:32:35;;;;;;;92.72;43.97;;;;;;;;;;4993644;28;20545;-65
2023/06/22 01:35:01;;;;;;;93.25;44.25;;;;;;;;;;4995152;28;20117;-64
2023/06/22 01:37:28;;;;;;;90.25;43.92;;;;;;;;;;4999181;28;20608;-65
2023/06/22 01:39:55;;;;;;;101.15;45.20;;;;;;;;;;4999126;28;20037;-65
2023/06/22 01:42:20;;;;;;;87.65;41.97;;;;;;;;;;4999874;28;20623;-65
2023/06/22 01:44:46;;;;;;;84.90;40.92;;;;;;;;;;4998684;28;20103;-65
2023/06/22 01:47:13;;;;;;;89.95;41.80;;;;;;;;;;4995944;28;20067;-65
2023/06/22 01:49:39;;;;;;;84.32;40.67;;;;;;;;;;4998953;28;22702;-66
2023/06/22 01:52:05;;;;;;;81.32;39.97;;;;;;;;;;4998441;28;20103;-65
2023/06/22 01:54:30;;;;;;;78.85;37.92;;;;;;;;;;4998771;28;20036;-65
2023/06/22 01:56:55;;;;;;;83.10;39.95;;;;;;;;;;4996535;28;20030;-65
2023/06/22 01:59:37;;;;;;;77.85;38.47;;;;;;;;;;4997201;28;20140;-65
2023/06/22 02:02:06;;;;;;;72.43;35.38;;;;;;;;;;4997596;28;20041;-66
2023/06/22 02:04:34;;;;;;;77.82;37.47;;;;;;;;;;4998077;28;20044;-67
2023/06/22 02:07:00;;;;;;;82.43;38.13;;;;;;;;;;4995639;28;20037;-66
2023/06/22 02:09:28;;;;;;;89.63;39.92;;;;;;;;;;4997438;28;20060;-66
2023/06/22 02:11:56;;;;;;;94.63;40.38;;;;;;;;;;4994938;28;20048;-66
2023/06/22 02:14:22;;;;;;;84.47;40.90;;;;;;;;;;4999834;28;20490;-65
2023/06/22 02:16:47;;;;;;;88.80;40.22;;;;;;;;;;4997161;28;20061;-66
2023/06/22 02:19:15;;;;;;;83.88;40.15;;;;;;;;;;4996155;28;20037;-66
2023/06/22 02:21:40;;;;;;;85.03;39.40;;;;;;;;;;4996939;28;20501;-66
2023/06/22 02:24:06;;;;;;;89.07;41.40;;;;;;;;;;4997297;28;20067;-66
2023/06/22 02:26:32;;;;;;;91.00;42.75;;;;;;;;;;4995748;28;20033;-66
2023/06/22 02:28:58;;;;;;;93.72;42.35;;;;;;;;;;4996311;28;20044;-65
2023/06/22 02:31:30;;;;;;;90.40;42.45;;;;;;;;;;4993941;28;20052;-67
2023/06/22 02:33:57;;;;;;;98.88;43.97;;;;;;;;;;4994899;28;20037;-66
2023/06/22 02:36:23;;;;;;;109.25;49.45;;;;;;;;;;4995950;28;20076;-67
2023/06/22 02:38:49;;;;;;;108.15;49.38;;;;;;;;;;4995995;28;20581;-66
2023/06/22 02:41:18;;;;;;;103.07;48.40;;;;;;;;;;4993817;28;20037;-67
2023/06/22 02:43:44;;;;;;;96.93;47.42;;;;;;;;;;4993826;28;20042;-66
2023/06/22 02:46:09;;;;;;;103.85;48.72;;;;;;;;;;5005784;28;20792;-66
2023/06/22 02:48:35;;;;;;;100.20;49.40;;;;;;;;;;4994238;28;20034;-66
2023/06/22 02:51:02;;;;;;;109.20;50.47;;;;;;;;;;4993546;28;20038;-67
2023/06/22 02:53:28;;;;;;;108.30;51.38;;;;;;;;;;4994769;28;20124;-67
2023/06/22 02:55:53;;;;;;;99.50;49.50;;;;;;;;;;4994265;28;20032;-66
2023/06/22 02:58:18;;;;;;;117.13;55.13;;;;;;;;;;4994544;28;20552;-67
2023/06/22 03:00:44;;;;;;;127.43;58.00;;;;;;;;;;4995261;28;20040;-66
2023/06/22 03:03:09;;;;;;;131.45;60.83;;;;;;;;;;4996169;28;20047;-67
2023/06/22 03:05:36;;;;;;;128.85;58.22;;;;;;;;;;4993468;28;20064;-67
2023/06/22 03:08:02;;;;;;;115.20;54.40;;;;;;;;;;4994740;28;20115;-67
2023/06/22 03:10:27;;;;;;;125.55;57.20;;;;;;;;;;5005426;28;20087;-68
2023/06/22 03:12:52;;;;;;;118.68;55.53;;;;;;;;;;4993372;28;20088;-67
2023/06/22 03:15:20;;;;;;;110.13;54.65;;;;;;;;;;4994014;28;20509;-67
2023/06/22 03:17:46;;;;;;;107.63;51.58;;;;;;;;;;4994524;28;20037;-67
2023/06/22 03:20:12;;;;;;;106.18;51.47;;;;;;;;;;4994957;28;22325;-67
2023/06/22 03:22:38;;;;;;;106.03;50.80;;;;;;;;;;4995183;28;20048;-67
2023/06/22 03:25:04;;;;;;;110.80;53.03;;;;;;;;;;4993657;28;20761;-67
2023/06/22 03:27:31;;;;;;;101.28;49.97;;;;;;;;;;4993946;28;20136;-67
2023/06/22 03:29:57;;;;;;;106.60;52.03;;;;;;;;;;4995115;28;20041;-67
2023/06/22 03:32:22;;;;;;;106.15;52.65;;;;;;;;;;4994738;28;20049;-67
2023/06/22 03:34:48;;;;;;;104.05;51.22;;;;;;;;;;5009253;28;20038;-68
2023/06/22 03:37:14;;;;;;;109.70;50.22;;;;;;;;;;4994923;28;21019;-66
2023/06/22 03:39:40;;;;;;;119.30;56.83;;;;;;;;;;4994211;28;20041;-66
2023/06/22 03:45:17;;;;;;;107.90;51.55;;;;;;;;;;4932687;22;20061;-67
2023/06/22 03:47:44;;;;;;;104.05;52.83;;;;;;;;;;4917261;28;20102;-69
2023/06/22 03:50:09;;;;;;;101.82;48.97;;;;;;;;;;4920030;28;20062;-69
2023/06/22 03:52:35;;;;;;;111.40;51.65;;;;;;;;;;4919458;28;22431;-68
2023/06/22 03:55:00;;;;;;;116.70;53.20;;;;;;;;;;4915317;28;20042;-68
2023/06/22 03:57:25;;;;;;;120.30;55.60;;;;;;;;;;4919373;28;20509;-68
2023/06/22 03:59:56;;;;;;;115.80;53.72;;;;;;;;;;4920355;28;20128;-68
2023/06/22 04:02:21;;;;;;;115.47;54.72;;;;;;;;;;4920406;28;20130;-68
2023/06/22 04:04:46;;;;;;;124.88;57.10;;;;;;;;;;4912589;28;20040;-67
2023/06/22 04:07:12;;;;;;;117.38;53.53;;;;;;;;;;4917820;28;20039;-67
2023/06/22 04:09:37;;;;;;;115.32;54.30;;;;;;;;;;4918609;28;20480;-68
2023/06/22 04:12:02;;;;;;;113.65;53.40;;;;;;;;;;4901199;28;20087;-67
2023/06/22 04:14:28;;;;;;;100.80;48.67;;;;;;;;;;4918699;28;20707;-68
2023/06/22 04:16:53;;;;;;;112.13;52.05;;;;;;;;;;4915963;28;20031;-67
2023/06/22 04:19:19;;;;;;;114.10;52.83;;;;;;;;;;4902482;28;20072;-68
2023/06/22 04:21:44;;;;;;;110.43;51.70;;;;;;;;;;4920139;28;20074;-67
2023/06/22 04:24:10;;;;;;;109.35;51.22;;;;;;;;;;4915003;28;20539;-68
2023/06/22 04:26:36;;;;;;;106.07;49.47;;;;;;;;;;4909120;28;20568;-68
2023/06/22 04:29:05;;;;;;;104.28;49.17;;;;;;;;;;4917451;28;20399;-67
2023/06/22 04:31:36;;;;;;;104.95;48.08;;;;;;;;;;4915820;28;20661;-68
2023/06/22 04:34:06;;;;;;;107.43;47.70;;;;;;;;;;4918594;28;20481;-67
2023/06/22 04:36:37;;;;;;;104.53;50.45;;;;;;;;;;4918446;28;20047;-67
2023/06/22 04:39:03;;;;;;;100.95;47.55;;;;;;;;;;4919278;28;20039;-68
2023/06/22 04:41:28;;;;;;;109.40;48.70;;;;;;;;;;4919385;28;20035;-67
2023/06/22 04:43:59;;;;;;;104.85;50.35;;;;;;;;;;4918468;28;20071;-68
2023/06/22 04:46:25;;;;;;;103.95;49.75;;;;;;;;;;4928703;28;20918;-67
2023/06/22 04:48:50;;;;;;;101.53;50.00;;;;;;;;;;4917016;28;20035;-65
2023/06/22 04:51:15;;;;;;;102.13;48.30;;;;;;;;;;4936851;28;20694;-67
2023/06/22 04:53:41;;;;;;;96.72;48.42;;;;;;;;;;4939004;28;20503;-65
2023/06/22 04:56:06;;;;;;;110.63;53.30;;;;;;;;;;4931889;28;20027;-67
2023/06/22 04:58:32;;;;;;;103.38;52.00;;;;;;;;;;4915944;28;20697;-68
2023/06/22 05:00:59;;;;;;;103.97;52.47;;;;;;;;;;4934829;28;20077;-67
2023/06/22 05:03:25;;;;;;;104.25;51.35;;;;;;;;;;4936144;28;20619;-66
2023/06/22 05:05:51;;;;;;;95.90;49.03;;;;;;;;;;4936720;28;20034;-67
2023/06/22 05:08:17;;;;;;;100.50;50.85;;;;;;;;;;4936695;28;20031;-69
2023/06/22 05:10:43;;;;;;;92.95;47.60;;;;;;;;;;4935139;28;20122;-68
2023/06/22 05:13:08;;;;;;;95.35;49.97;;;;;;;;;;4939206;28;20042;-67
2023/06/22 05:15:36;;;;;;;87.70;47.55;;;;;;;;;;4938085;28;20448;-67
2023/06/22 05:18:05;;;;;;;84.80;48.30;;;;;;;;;;4939346;28;20055;-67
2023/06/22 05:20:30;;;;;;;84.30;46.67;;;;;;;;;;4938958;28;20065;-67
2023/06/22 05:22:55;;;;;;;76.93;44.95;;;;;;;;;;4940695;28;20496;-67
2023/06/22 05:25:21;;;;;;;72.70;42.63;;;;;;;;;;4937934;28;20062;-65
2023/06/22 05:27:50;;;;;;;69.88;42.95;;;;;;;;;;4917353;28;20959;-68
2023/06/22 05:30:16;;;;;;;60.08;39.13;;;;;;;;;;4938175;28;20031;-67
2023/06/22 05:32:44;;;;;;;54.42;36.92;;;;;;;;;;4938676;28;20053;-69
2023/06/22 05:35:09;;;;;;;54.80;35.47;;;;;;;;;;4937460;28;20598;-68
2023/06/22 05:37:34;;;;;;;52.25;36.10;;;;;;;;;;4937241;28;20045;-68
2023/06/22 05:40:00;;;;;;;47.05;33.58;;;;;;;;;;4937246;28;20035;-68
2023/06/22 05:42:25;;;;;;;50.42;34.65;;;;;;;;;;4938425;28;20047;-68
2023/06/22 05:44:53;;;;;;;45.97;32.78;;;;;;;;;;4938929;28;20161;-66
2023/06/22 05:47:18;;;;;;;45.70;33.28;;;;;;;;;;4923506;28;20047;-65
2023/06/22 05:49:43;;;;;;;42.33;31.75;;;;;;;;;;4940763;28;20099;-66
2023/06/22 05:52:08;;;;;;;44.88;32.40;;;;;;;;;;4941879;28;20234;-68
2023/06/22 05:54:34;;;;;;;42.90;30.70;;;;;;;;;;4939074;28;20035;-67
2023/06/22 05:56:59;;;;;;;42.13;30.05;;;;;;;;;;4939689;28;20047;-65
2023/06/22 05:59:24;;;;;;;36.70;28.55;;;;;;;;;;4938651;28;20056;-66
2023/06/22 06:01:52;;;;;;;34.88;26.45;;;;;;;;;;4920430;28;20077;-66
2023/06/22 06:04:18;;;;;;;37.38;28.10;;;;;;;;;;4939901;28;20035;-65
2023/06/22 06:06:43;;;;;;;36.75;27.08;;;;;;;;;;4940198;28;20047;-65
2023/06/22 06:09:11;;;;;;;38.85;27.65;;;;;;;;;;4938270;28;20159;-65
2023/06/22 06:11:39;;;;;;;36.40;27.55;;;;;;;;;;4921140;28;20155;-66
2023/06/22 06:14:04;;;;;;;38.78;28.30;;;;;;;;;;4934007;28;20253;-64
2023/06/22 06:16:29;;;;;;;38.05;28.75;;;;;;;;;;4937976;28;20567;-64
2023/06/22 06:18:55;;;;;;;36.72;28.63;;;;;;;;;;4938779;28;20039;-64
2023/06/22 06:21:21;;;;;;;39.25;29.98;;;;;;;;;;4917211;28;20125;-66
2023/06/22 06:23:47;;;;;;;38.30;30.17;;;;;;;;;;4936442;28;20771;-64
2023/06/22 06:26:12;;;;;;;42.03;30.02;;;;;;;;;;4937867;28;20039;-65
2023/06/22 06:28:40;;;;;;;35.05;27.80;;;;;;;;;;4939894;28;20895;-65
2023/06/22 06:31:08;;;;;;;41.40;31.15;;;;;;;;;;4931648;28;20070;-65
2023/06/22 06:33:33;;;;;;;40.03;29.65;;;;;;;;;;4937330;28;20030;-65
2023/06/22 06:36:01;;;;;;;40.70;29.55;;;;;;;;;;4931323;28;20045;-66
2023/06/22 06:38:27;;;;;;;36.75;28.58;;;;;;;;;;4940573;28;20026;-66
2023/06/22 06:40:52;;;;;;;36.78;28.45;;;;;;;;;;4940363;28;20475;-66
2023/06/22 06:43:17;;;;;;;34.03;28.52;;;;;;;;;;4938536;28;20118;-67
2023/06/22 06:45:42;;;;;;;37.58;28.92;;;;;;;;;;4939056;28;20049;-66
2023/06/22 06:48:09;;;;;;;33.40;26.88;;;;;;;;;;4935666;28;20755;-66
2023/06/22 06:50:34;;;;;;;36.60;27.85;;;;;;;;;;4938628;28;20035;-65
2023/06/22 06:53:05;;;;;;;29.80;24.35;;;;;;;;;;4907707;28;20132;-66
2023/06/22 06:55:32;;;;;;;29.77;25.35;;;;;;;;;;4937556;28;20058;-66
2023/06/22 06:58:00;;;;;;;33.53;25.92;;;;;;;;;;4938175;28;20997;-63
2023/06/22 07:00:26;;;;;;;31.30;23.98;;;;;;;;;;4938144;28;20042;-64
2023/06/22 07:02:51;;;;;;;29.40;24.55;;;;;;;;;;4936958;28;20034;-64
2023/06/22 07:05:17;;;;;;;31.73;26.08;;;;;;;;;;4929023;28;20042;-64
2023/06/22 07:07:42;;;;;;;25.98;22.13;;;;;;;;;;4936029;28;20514;-64
2023/06/22 07:10:07;;;;;;;26.95;21.15;;;;;;;;;;4936418;28;20035;-64
2023/06/22 07:12:35;;;;;;;28.45;21.42;;;;;;;;;;4935316;28;20088;-65
2023/06/22 07:15:07;;;;;;;28.48;19.73;;;;;;;;;;4932619;28;20580;-63
2023/06/22 07:17:33;;;;;;;23.95;18.88;;;;;;;;;;4936260;28;20700;-64
2023/06/22 07:20:10;;;;;;;22.85;18.83;;;;;;;;;;4937593;28;20985;-63
2023/06/22 07:22:35;;;;;;;26.33;19.70;;;;;;;;;;4937971;28;20122;-64
2023/06/22 07:25:09;;;;;;;24.48;19.67;;;;;;;;;;4939264;28;20043;-62
2023/06/22 07:27:37;;;;;;;24.13;19.73;;;;;;;;;;4937787;28;20514;-64
2023/06/22 07:30:03;;;;;;;21.35;18.77;;;;;;;;;;4928249;28;20519;-62
2023/06/22 07:32:29;;;;;;;21.85;18.33;;;;;;;;;;4937836;28;20046;-64
2023/06/22 07:34:54;;;;;;;19.83;17.58;;;;;;;;;;4936311;28;20039;-63
2023/06/22 07:37:19;;;;;;;20.23;16.17;;;;;;;;;;4937850;28;20454;-63
2023/06/22 07:39:44;;;;;;;20.45;15.95;;;;;;;;;;4936322;28;20073;-63
2023/06/22 07:42:10;;;;;;;19.35;15.73;;;;;;;;;;4937099;28;20557;-63
2023/06/22 07:44:35;;;;;;;21.77;16.55;;;;;;;;;;4932248;28;20127;-64
2023/06/22 07:47:01;;;;;;;20.20;16.50;;;;;;;;;;4937130;28;20180;-63
2023/06/22 07:49:27;;;;;;;21.38;17.25;;;;;;;;;;4937739;28;20041;-63
2023/06/22 07:51:52;;;;;;;18.02;15.32;;;;;;;;;;4936772;28;20466;-62
2023/06/22 07:54:18;;;;;;;20.70;15.48;;;;;;;;;;4938001;28;20464;-62
2023/06/22 07:56:43;;;;;;;20.73;13.95;;;;;;;;;;4935421;28;20043;-62
2023/06/22 07:59:11;;;;;;;16.30;13.25;;;;;;;;;;4916593;28;20051;-65
2023/06/22 08:01:36;;;;;;;16.10;12.70;;;;;;;;;;4916288;28;20035;-62
2023/06/22 08:04:02;;;;;;;13.65;10.70;;;;;;;;;;4935780;28;20048;-62
2023/06/22 08:06:29;;;;;;;13.52;11.18;;;;;;;;;;4937130;28;20057;-63
2023/06/22 08:08:58;;;;;;;14.65;11.63;;;;;;;;;;4937659;28;22947;-63
2023/06/22 08:11:25;;;;;;;15.10;11.45;;;;;;;;;;4936539;28;20849;-62
2023/06/22 08:13:51;;;;;;;16.63;12.48;;;;;;;;;;4937025;28;20637;-62
2023/06/22 08:16:17;;;;;;;17.40;12.23;;;;;;;;;;4937583;28;20034;-63
2023/06/22 08:18:42;;;;;;;16.80;12.95;;;;;;;;;;4936701;28;20031;-62
2023/06/22 08:21:08;;;;;;;17.02;13.25;;;;;;;;;;4914646;28;20043;-63
2023/06/22 08:23:33;;;;;;;19.15;14.32;;;;;;;;;;4936807;28;20066;-63
2023/06/22 08:25:58;;;;;;;18.35;16.17;;;;;;;;;;4934992;28;20057;-63
2023/06/22 08:28:24;;;;;;;19.42;17.02;;;;;;;;;;4936655;28;20031;-62
2023/06/22 08:30:51;;;;;;;22.17;19.88;;;;;;;;;;4936805;28;20042;-62
2023/06/22 08:33:17;;;;;;;20.95;18.92;;;;;;;;;;4935968;28;20064;-63
2023/06/22 08:35:42;;;;;;;20.92;18.73;;;;;;;;;;4916114;28;20672;-62
2023/06/22 08:38:08;;;;;;;22.55;20.30;;;;;;;;;;4936212;28;20101;-63
2023/06/22 08:40:34;;;;;;;24.33;21.73;;;;;;;;;;4936493;28;20038;-62
2023/06/22 08:42:59;;;;;;;21.65;19.45;;;;;;;;;;4922834;28;20050;-62
2023/06/22 08:45:24;;;;;;;21.05;18.85;;;;;;;;;;4919496;28;20168;-62
2023/06/22 08:47:52;;;;;;;18.02;16.00;;;;;;;;;;4917866;28;20049;-61
2023/06/22 08:50:18;;;;;;;19.05;17.10;;;;;;;;;;4936468;28;20414;-63
2023/06/22 08:52:43;;;;;;;19.25;17.10;;;;;;;;;;4935993;28;20573;-63
2023/06/22 08:55:09;;;;;;;18.65;16.33;;;;;;;;;;4935871;28;20169;-61
2023/06/22 08:57:37;;;;;;;16.75;15.00;;;;;;;;;;4935515;28;20283;-62
2023/06/22 09:00:04;;;;;;;15.95;14.38;;;;;;;;;;4927291;28;20119;-63
2023/06/22 09:02:31;;;;;;;16.38;14.15;;;;;;;;;;4919789;28;20097;-62
2023/06/22 09:04:59;;;;;;;15.70;13.73;;;;;;;;;;4935717;28;20256;-63
2023/06/22 09:07:25;;;;;;;16.08;13.10;;;;;;;;;;4936599;28;20349;-62
2023/06/22 09:09:51;;;;;;;15.13;13.55;;;;;;;;;;4935335;28;20169;-63
2023/06/22 09:12:19;;;;;;;18.00;14.38;;;;;;;;;;4936446;28;20047;-62
2023/06/22 09:14:45;;;;;;;18.75;14.52;;;;;;;;;;4914869;28;20073;-63
2023/06/22 09:17:10;;;;;;;17.13;14.55;;;;;;;;;;4935331;28;20039;-63
2023/06/22 09:19:35;;;;;;;15.80;14.15;;;;;;;;;;4935639;28;20038;-63
2023/06/22 09:22:01;;;;;;;17.65;15.20;;;;;;;;;;4916815;28;20089;-63
2023/06/22 09:24:26;;;;;;;17.70;14.20;;;;;;;;;;4930021;28;20102;-64
2023/06/22 09:26:51;;;;;;;17.20;14.13;;;;;;;;;;4934786;28;20109;-63
2023/06/22 09:29:17;;;;;;;17.48;14.57;;;;;;;;;;4934842;28;20596;-63
2023/06/22 09:31:45;;;;;;;15.90;12.82;;;;;;;;;;4935186;28;20061;-65
2023/06/22 09:34:10;;;;;;;14.65;12.75;;;;;;;;;;4934694;28;20039;-63
2023/06/22 09:36:36;;;;;;;15.50;12.23;;;;;;;;;;4935719;28;20047;-63
2023/06/22 09:39:06;;;;;;;16.98;11.85;;;;;;;;;;4938251;28;20045;-63
2023/06/22 09:41:31;;;;;;;14.48;12.10;;;;;;;;;;4923705;28;20035;-62
2023/06/22 09:43:56;;;;;;;18.15;12.45;;;;;;;;;;4920306;28;20049;-64
2023/06/22 09:46:24;;;;;;;14.05;11.35;;;;;;;;;;4937022;28;20039;-64
2023/06/22 09:48:50;;;;;;;17.65;12.20;;;;;;;;;;4935716;28;20039;-64
2023/06/22 09:51:15;;;;;;;14.60;12.10;;;;;;;;;;4937473;28;20058;-63
2023/06/22 09:53:40;;;;;;;14.27;9.70;;;;;;;;;;4938312;28;20134;-64
2023/06/22 09:56:06;;;;;;;14.05;10.55;;;;;;;;;;4923395;28;20578;-64
2023/06/22 09:58:31;;;;;;;13.73;11.10;;;;;;;;;;4941151;28;20799;-63
2023/06/22 10:01:00;;;;;;;13.73;9.77;;;;;;;;;;4925227;28;20058;-64
2023/06/22 10:03:27;;;;;;;12.40;10.57;;;;;;;;;;4927631;28;20035;-64
2023/06/22 10:05:53;;;;;;;14.57;10.55;;;;;;;;;;4923761;28;20089;-63
2023/06/22 10:08:20;;;;;;;11.68;10.13;;;;;;;;;;4941281;28;20150;-62
2023/06/22 10:10:48;;;;;;;14.47;10.27;;;;;;;;;;4939087;28;20027;-62
2023/06/22 10:13:14;;;;;;;12.27;8.55;;;;;;;;;;4940478;28;20050;-62
2023/06/22 10:15:40;;;;;;;12.02;8.30;;;;;;;;;;4940195;28;20070;-62
2023/06/22 10:18:05;;;;;;;9.07;7.22;;;;;;;;;;4940969;28;20038;-62
2023/06/22 10:20:33;;;;;;;10.73;7.45;;;;;;;;;;4937982;28;20042;-63
2023/06/22 10:22:59;;;;;;;12.30;8.85;;;;;;;;;;4938633;28;20035;-63
2023/06/22 10:25:25;;;;;;;10.45;6.93;;;;;;;;;;4931258;28;20039;-63
2023/06/22 10:27:53;;;;;;;9.48;6.30;;;;;;;;;;4935420;28;20499;-62
2023/06/22 10:30:18;;;;;;;10.27;6.88;;;;;;;;;;4930033;28;20101;-62
2023/06/22 10:32:43;;;;;;;12.57;7.57;;;;;;;;;;4938923;28;20047;-62
2023/06/22 10:35:10;;;;;;;7.82;6.22;;;;;;;;;;4939164;28;20057;-63
2023/06/22 10:37:36;;;;;;;11.40;6.82;;;;;;;;;;4940237;28;20035;-62
2023/06/22 10:40:02;;;;;;;8.20;6.25;;;;;;;;;;4936835;28;20053;-63
2023/06/22 10:42:28;;;;;;;8.23;6.65;;;;;;;;;;4939832;28;20049;-62
2023/06/22 10:44:53;;;;;;;10.50;7.25;;;;;;;;;;4936972;28;20042;-62
2023/06/22 10:47:18;;;;;;;11.15;8.38;;;;;;;;;;4938477;28;20042;-63
2023/06/22 10:49:46;;;;;;;12.48;9.52;;;;;;;;;;4935603;28;20146;-62
2023/06/22 10:52:11;;;;;;;12.20;9.80;;;;;;;;;;4936406;28;20043;-62
2023/06/22 10:54:37;;;;;;;14.30;10.68;;;;;;;;;;4937490;28;20042;-62
2023/06/22 10:57:03;;;;;;;11.27;9.25;;;;;;;;;;4938283;28;20039;-65
2023/06/22 10:59:29;;;;;;;13.07;8.85;;;;;;;;;;4937218;28;20092;-65
2023/06/22 11:01:58;;;;;;;13.45;9.73;;;;;;;;;;4900599;28;20049;-62
2023/06/22 11:04:23;;;;;;;13.75;9.45;;;;;;;;;;4936767;28;20047;-62
2023/06/22 11:06:49;;;;;;;13.20;10.52;;;;;;;;;;4915855;28;20050;-62
2023/06/22 11:09:18;;;;;;;14.05;10.07;;;;;;;;;;4935869;28;20043;-63
2023/06/22 11:11:44;;;;;;;13.32;9.90;;;;;;;;;;4935526;28;20043;-64
2023/06/22 11:14:12;;;;;;;10.93;9.43;;;;;;;;;;4919950;28;20097;-64
2023/06/22 11:16:37;;;;;;;11.50;9.43;;;;;;;;;;4936944;28;20436;-62
2023/06/22 11:19:04;;;;;;;14.10;9.40;;;;;;;;;;4937961;28;20566;-63
2023/06/22 11:21:30;;;;;;;12.00;9.35;;;;;;;;;;4916374;28;20051;-63
2023/06/22 11:23:55;;;;;;;15.95;10.55;;;;;;;;;;4936390;28;20042;-64
2023/06/22 11:26:21;;;;;;;13.60;10.52;;;;;;;;;;4938227;28;20036;-64
2023/06/22 11:28:46;;;;;;;14.35;10.10;;;;;;;;;;4937127;28;21081;-63
2023/06/22 11:31:11;;;;;;;14.30;9.75;;;;;;;;;;4917928;28;20070;-64
2023/06/22 11:33:37;;;;;;;14.05;10.02;;;;;;;;;;4937306;28;20050;-63
2023/06/22 11:36:02;;;;;;;13.15;10.52;;;;;;;;;;4919496;28;20059;-65
2023/06/22 11:38:27;;;;;;;13.48;10.43;;;;;;;;;;4936863;28;20094;-62
2023/06/22 11:40:53;;;;;;;16.77;10.40;;;;;;;;;;4920146;28;20035;-64
2023/06/22 11:43:18;;;;;;;12.30;9.82;;;;;;;;;;4937210;28;20035;-63
2023/06/22 11:45:45;;;;;;;14.45;10.30;;;;;;;;;;4935972;28;20053;-65
2023/06/22 11:48:11;;;;;;;12.43;9.88;;;;;;;;;;4937432;28;20728;-62
2023/06/22 11:50:38;;;;;;;12.98;10.40;;;;;;;;;;4915808;28;20041;-63
2023/06/22 11:53:04;;;;;;;14.65;10.93;;;;;;;;;;4937126;28;20392;-64
2023/06/22 11:55:31;;;;;;;12.65;9.88;;;;;;;;;;4934493;28;20066;-64
2023/06/22 11:58:00;;;;;;;14.20;9.88;;;;;;;;;;4935405;28;20206;-64
2023/06/22 12:00:25;;;;;;;12.40;10.65;;;;;;;;;;4934369;28;20062;-63
2023/06/22 12:02:51;;;;;;;12.57;9.85;;;;;;;;;;4937143;28;20062;-63
2023/06/22 12:05:17;;;;;;;14.07;10.57;;;;;;;;;;4935451;28;20038;-63
2023/06/22 12:07:45;;;;;;;12.82;10.55;;;;;;;;;;4937911;28;20106;-63
2023/06/22 12:10:10;;;;;;;13.88;10.48;;;;;;;;;;4935619;28;20038;-64
2023/06/22 12:12:36;;;;;;;12.43;9.57;;;;;;;;;;4920384;28;20520;-62
2023/06/22 12:15:03;;;;;;;12.15;10.02;;;;;;;;;;4937430;28;20467;-62
2023/06/22 12:17:29;;;;;;;11.57;9.38;;;;;;;;;;4935496;28;20189;-64
2023/06/22 12:19:57;;;;;;;12.63;9.20;;;;;;;;;;4918642;28;20050;-64
2023/06/22 12:22:22;;;;;;;13.65;9.75;;;;;;;;;;4935158;28;20157;-63
2023/06/22 12:24:47;;;;;;;12.20;9.45;;;;;;;;;;4936697;28;20456;-63
2023/06/22 12:27:16;;;;;;;11.63;9.63;;;;;;;;;;4919139;28;20247;-63
2023/06/22 12:29:41;;;;;;;12.23;9.48;;;;;;;;;;4935054;28;20042;-63
2023/06/22 12:32:09;;;;;;;20.08;9.32;;;;;;;;;;4915016;28;20506;-63
2023/06/22 12:34:36;;;;;;;13.85;8.65;;;;;;;;;;4935053;28;20185;-63
2023/06/22 12:37:02;;;;;;;15.40;8.45;;;;;;;;;;4918055;28;20038;-63
2023/06/22 12:39:27;;;;;;;23.38;9.55;;;;;;;;;;4918957;28;20050;-63
2023/06/22 12:41:52;;;;;;;13.15;9.10;;;;;;;;;;4936081;28;20046;-64
2023/06/22 12:44:18;;;;;;;11.32;8.57;;;;;;;;;;4934329;28;20035;-64
2023/06/22 12:46:43;;;;;;;10.93;8.60;;;;;;;;;;4936443;28;20046;-63
2023/06/22 12:49:08;;;;;;;12.82;9.90;;;;;;;;;;4932705;28;20532;-63
2023/06/22 12:51:39;;;;;;;15.48;9.45;;;;;;;;;;4935628;28;20035;-63
2023/06/22 12:54:04;;;;;;;12.98;9.25;;;;;;;;;;4935599;28;20097;-64
2023/06/22 12:56:29;;;;;;;12.13;9.80;;;;;;;;;;4935638;28;20527;-62
2023/06/22 12:58:55;;;;;;;13.63;8.77;;;;;;;;;;4932667;28;20478;-62
2023/06/22 13:01:20;;;;;;;12.40;9.20;;;;;;;;;;4927909;28;20057;-64
2023/06/22 13:03:45;;;;;;;11.73;9.02;;;;;;;;;;4931667;28;20031;-63
2023/06/22 13:06:10;;;;;;;14.30;10.40;;;;;;;;;;4935399;28;20039;-64
2023/06/22 13:08:36;;;;;;;12.43;9.82;;;;;;;;;;4929949;28;20035;-62
2023/06/22 13:11:01;;;;;;;13.73;9.85;;;;;;;;;;4934339;28;20039;-62
2023/06/22 13:13:29;;;;;;;10.43;8.30;;;;;;;;;;4932099;28;20093;-62
2023/06/22 13:15:57;;;;;;;11.85;8.65;;;;;;;;;;4897796;28;22555;-64
2023/06/22 13:18:22;;;;;;;14.02;8.68;;;;;;;;;;4936034;28;20059;-62
2023/06/22 13:20:47;;;;;;;13.02;8.32;;;;;;;;;;4933464;28;20130;-63
2023/06/22 13:23:13;;;;;;;11.80;8.57;;;;;;;;;;4937355;28;20039;-64
2023/06/22 13:25:38;;;;;;;10.45;7.35;;;;;;;;;;4937512;28;20040;-64
2023/06/22 13:28:04;;;;;;;9.55;7.57;;;;;;;;;;4937997;28;20060;-65
2023/06/22 13:30:31;;;;;;;11.43;7.60;;;;;;;;;;4934870;28;20066;-62
2023/06/22 13:32:56;;;;;;;10.25;7.72;;;;;;;;;;4937741;28;20074;-64
2023/06/22 13:35:21;;;;;;;10.63;7.57;;;;;;;;;;4938015;28;20049;-62
2023/06/22 13:37:47;;;;;;;10.27;7.30;;;;;;;;;;4940179;28;20561;-63
2023/06/22 13:40:12;;;;;;;10.65;7.22;;;;;;;;;;4937678;28;20038;-63
2023/06/22 13:42:37;;;;;;;9.20;6.90;;;;;;;;;;4939926;28;20049;-63
2023/06/22 13:45:06;;;;;;;8.77;6.80;;;;;;;;;;4938259;28;20165;-63
2023/06/22 13:47:34;;;;;;;9.25;5.90;;;;;;;;;;4917903;28;20039;-63
2023/06/22 13:49:59;;;;;;;10.35;6.75;;;;;;;;;;4918239;28;20763;-63
2023/06/22 13:52:25;;;;;;;9.40;5.95;;;;;;;;;;4939203;28;20074;-63
2023/06/22 13:54:50;;;;;;;9.32;6.15;;;;;;;;;;4936983;28;20038;-64
2023/06/22 13:57:16;;;;;;;10.68;7.47;;;;;;;;;;4939494;28;20065;-63
2023/06/22 13:59:41;;;;;;;10.50;7.45;;;;;;;;;;4938533;28;20058;-63
2023/06/22 14:02:06;;;;;;;10.93;7.75;;;;;;;;;;4920738;28;20039;-64
2023/06/22 14:04:34;;;;;;;11.32;7.32;;;;;;;;;;4936134;28;20292;-64
2023/06/22 14:06:59;;;;;;;8.50;6.40;;;;;;;;;;4939265;28;20038;-62
2023/06/22 14:09:29;;;;;;;8.43;6.38;;;;;;;;;;4935432;28;20101;-64
2023/06/22 14:11:57;;;;;;;10.13;6.78;;;;;;;;;;4933630;28;20121;-64
2023/06/22 14:14:22;;;;;;;8.32;6.35;;;;;;;;;;4929086;28;20038;-63
2023/06/22 14:16:49;;;;;;;8.77;6.18;;;;;;;;;;4939225;28;20516;-63